Time;durP1;ratioP1;P1;durP2;ratioP2;P2;SDS_P1;SDS_P2;PMS_P1;PMS_P2;Temp;Humidity;BMP_temperature;BMP_pressure;BME280_temperature;BME280_humidity;BME280_pressure;Samples;Min_cycle;Max_cycle;Signal;HPM_P1;HPM_P2
2023/08/27 00:01:13;;;;;;;5.40;2.50;;;17.60;99.90;;;;;;4969679;28;20037;-74
2023/08/27 00:03:39;;;;;;;7.05;3.05;;;17.60;99.90;;;;;;4971257;28;20397;-74
2023/08/27 00:06:05;;;;;;;5.28;3.05;;;17.50;99.90;;;;;;4953170;28;20041;-74
2023/08/27 00:08:42;;;;;;;7.25;2.88;;;17.50;99.90;;;;;;4972541;28;20134;-74
2023/08/27 00:11:08;;;;;;;7.47;3.28;;;17.40;99.90;;;;;;4967978;28;20038;-74
2023/08/27 00:13:34;;;;;;;5.85;2.80;;;17.40;99.90;;;;;;4970106;28;20045;-73
2023/08/27 00:16:03;;;;;;;7.43;3.10;;;17.40;99.90;;;;;;4972258;28;20050;-73
2023/08/27 00:18:29;;;;;;;8.68;3.35;;;17.40;99.90;;;;;;4958812;28;20034;-73
2023/08/27 00:20:55;;;;;;;9.68;3.67;;;17.40;99.90;;;;;;4969281;28;20426;-74
2023/08/27 00:23:20;;;;;;;8.35;3.35;;;17.40;99.90;;;;;;4970706;28;20046;-74
2023/08/27 00:25:46;;;;;;;7.93;3.45;;;17.40;99.90;;;;;;4953052;28;20045;-73
2023/08/27 00:28:13;;;;;;;9.55;3.60;;;17.40;99.90;;;;;;4952496;28;20041;-73
2023/08/27 00:30:39;;;;;;;8.15;3.47;;;17.50;99.90;;;;;;4963923;28;20344;-73
2023/08/27 00:33:05;;;;;;;6.47;3.20;;;17.50;99.90;;;;;;4969415;28;20035;-73
2023/08/27 00:35:30;;;;;;;6.90;3.25;;;17.50;99.90;;;;;;4967445;28;20058;-73
2023/08/27 00:37:56;;;;;;;4.75;2.60;;;17.50;99.90;;;;;;4970352;28;20135;-73
2023/08/27 00:40:21;;;;;;;7.45;2.72;;;17.50;99.90;;;;;;4967091;28;20027;-73
2023/08/27 00:42:47;;;;;;;5.78;3.03;;;17.60;99.90;;;;;;4952574;28;20587;-73
2023/08/27 00:45:12;;;;;;;6.63;2.60;;;17.60;99.90;;;;;;4971045;28;20454;-74
2023/08/27 00:47:39;;;;;;;5.00;2.38;;;17.60;99.90;;;;;;4970280;28;20493;-73
2023/08/27 00:50:08;;;;;;;7.22;2.45;;;17.60;99.90;;;;;;4968590;28;20038;-73
2023/08/27 00:52:37;;;;;;;5.63;3.20;;;17.60;99.90;;;;;;4972078;28;20086;-73
2023/08/27 00:55:04;;;;;;;5.20;2.45;;;17.60;99.90;;;;;;4969699;28;20027;-74
2023/08/27 00:57:30;;;;;;;6.70;2.60;;;17.60;99.90;;;;;;4967670;28;20050;-74
2023/08/27 00:59:57;;;;;;;4.22;2.40;;;17.70;99.90;;;;;;4949006;28;20039;-73
2023/08/27 01:02:23;;;;;;;4.40;2.85;;;17.70;99.90;;;;;;4964544;28;20057;-73
2023/08/27 01:04:49;;;;;;;7.28;2.97;;;17.70;99.90;;;;;;4965573;28;20050;-73
2023/08/27 01:07:45;;;;;;;4.90;2.83;;;17.70;99.90;;;;;;4967532;28;20031;-73
2023/08/27 01:10:20;;;;;;;4.20;2.42;;;17.70;99.90;;;;;;4929425;28;20050;-73
2023/08/27 01:13:03;;;;;;;5.38;2.05;;;17.70;99.90;;;;;;4968540;28;20374;-73
2023/08/27 01:15:30;;;;;;;3.53;2.63;;;17.70;99.90;;;;;;4967738;28;20019;-73
2023/08/27 01:17:59;;;;;;;5.38;2.45;;;17.70;99.90;;;;;;4953925;28;20031;-73
2023/08/27 01:20:25;;;;;;;4.13;2.60;;;17.70;99.90;;;;;;4974950;28;20039;-73
2023/08/27 01:22:51;;;;;;;8.18;2.47;;;17.70;99.90;;;;;;4970754;28;20146;-73
2023/08/27 01:25:19;;;;;;;4.38;2.70;;;17.70;99.90;;;;;;4972204;28;20083;-73
2023/08/27 01:27:56;;;;;;;3.65;2.58;;;17.70;99.90;;;;;;4968476;28;20034;-73
2023/08/27 01:30:33;;;;;;;5.72;3.28;;;17.70;99.90;;;;;;4969183;28;20027;-73
2023/08/27 01:33:16;;;;;;;4.63;3.25;;;17.70;99.90;;;;;;4972318;28;20027;-73
2023/08/27 01:35:43;;;;;;;4.35;2.92;;;17.60;99.90;;;;;;4969184;28;20041;-73
2023/08/27 01:38:10;;;;;;;5.70;2.70;;;17.60;99.90;;;;;;4971630;28;20118;-73
2023/08/27 01:40:40;;;;;;;4.43;3.08;;;17.70;99.90;;;;;;4972420;28;20019;-73
2023/08/27 01:43:05;;;;;;;7.55;3.00;;;17.60;99.90;;;;;;4969264;28;20030;-73
2023/08/27 01:45:31;;;;;;;3.45;2.35;;;17.60;99.90;;;;;;4952293;28;20442;-73
2023/08/27 01:47:57;;;;;;;5.20;2.50;;;17.60;99.90;;;;;;4964455;28;20444;-73
2023/08/27 01:50:23;;;;;;;8.45;2.90;;;17.60;99.90;;;;;;4968221;28;20027;-73
2023/08/27 01:52:51;;;;;;;4.65;2.95;;;17.60;99.90;;;;;;4967373;28;20027;-74
2023/08/27 01:55:17;;;;;;;4.85;3.15;;;17.60;99.90;;;;;;4970252;28;20042;-73
2023/08/27 01:57:42;;;;;;;7.03;3.20;;;17.60;99.90;;;;;;4964921;28;20023;-74
2023/08/27 02:00:09;;;;;;;8.88;3.83;;;17.50;99.90;;;;;;4964035;28;20109;-73
2023/08/27 02:02:38;;;;;;;7.70;4.20;;;17.50;99.90;;;;;;4966288;28;20031;-73
2023/08/27 02:05:06;;;;;;;5.13;3.78;;;17.50;99.90;;;;;;4969560;28;20125;-74
2023/08/27 02:07:37;;;;;;;6.18;4.03;;;17.50;99.90;;;;;;4965626;28;20043;-74
2023/08/27 02:10:08;;;;;;;7.47;4.18;;;17.40;99.90;;;;;;4966457;28;20498;-73
2023/08/27 02:12:34;;;;;;;6.40;4.10;;;17.40;99.90;;;;;;4970081;28;20023;-74
2023/08/27 02:15:03;;;;;;;7.28;3.97;;;17.40;99.90;;;;;;4965211;28;20396;-74
2023/08/27 02:17:29;;;;;;;9.65;4.32;;;17.40;99.90;;;;;;4961394;28;20034;-74
2023/08/27 02:19:55;;;;;;;7.45;4.20;;;17.40;99.90;;;;;;4948184;28;20284;-74
2023/08/27 02:22:20;;;;;;;6.03;4.25;;;17.40;99.90;;;;;;4968409;28;20130;-74
2023/08/27 02:24:46;;;;;;;8.70;4.22;;;17.40;99.90;;;;;;4971627;28;20023;-73
2023/08/27 02:27:11;;;;;;;6.05;4.38;;;17.40;99.90;;;;;;4972755;28;20375;-74
2023/08/27 02:29:37;;;;;;;4.43;3.63;;;17.40;99.90;;;;;;4971040;28;20035;-74
2023/08/27 02:32:03;;;;;;;5.75;4.18;;;17.40;99.90;;;;;;4971820;28;20152;-74
2023/08/27 02:34:28;;;;;;;6.45;3.60;;;17.40;99.90;;;;;;4952132;28;20031;-74
2023/08/27 02:36:54;;;;;;;5.72;4.00;;;17.40;99.90;;;;;;4971760;28;20107;-74
2023/08/27 02:39:20;;;;;;;7.28;4.13;;;17.40;99.90;;;;;;4969286;28;20485;-75
2023/08/27 02:41:45;;;;;;;4.75;3.50;;;17.40;99.90;;;;;;4969014;28;20030;-74
2023/08/27 02:44:11;;;;;;;4.57;3.50;;;17.50;99.90;;;;;;4969489;28;20027;-74
2023/08/27 02:46:36;;;;;;;6.00;3.70;;;17.40;99.90;;;;;;4969475;28;20225;-73
2023/08/27 02:49:02;;;;;;;7.82;4.00;;;17.40;99.90;;;;;;4969259;28;20442;-73
2023/08/27 02:51:27;;;;;;;7.90;4.15;;;17.40;99.90;;;;;;4968338;28;20055;-74
2023/08/27 02:53:53;;;;;;;9.82;4.32;;;17.40;99.90;;;;;;4967572;28;20085;-74
2023/08/27 02:56:19;;;;;;;5.25;3.42;;;17.40;99.90;;;;;;4965274;28;20038;-74
2023/08/27 02:58:48;;;;;;;5.18;3.90;;;17.40;99.90;;;;;;4966753;28;20328;-75
2023/08/27 03:01:20;;;;;;;6.47;3.88;;;17.40;99.90;;;;;;4969126;28;20022;-74
2023/08/27 03:03:49;;;;;;;8.48;4.20;;;17.40;99.90;;;;;;4971190;28;20018;-74
2023/08/27 03:06:14;;;;;;;6.38;4.03;;;17.40;99.90;;;;;;4967841;28;20119;-74
2023/08/27 03:08:40;;;;;;;5.78;3.67;;;17.40;99.90;;;;;;4969966;28;20030;-74
2023/08/27 03:11:06;;;;;;;7.35;3.97;;;17.40;99.90;;;;;;4948561;28;20031;-75
2023/08/27 03:13:32;;;;;;;8.32;3.60;;;17.40;99.90;;;;;;4968119;28;20508;-75
2023/08/27 03:15:58;;;;;;;8.20;4.18;;;17.40;99.90;;;;;;4969020;28;20023;-75
2023/08/27 03:18:24;;;;;;;8.35;4.10;;;17.40;99.90;;;;;;4967982;28;20093;-75
2023/08/27 03:20:50;;;;;;;6.38;4.43;;;17.40;99.90;;;;;;4967611;28;20030;-75
2023/08/27 03:23:16;;;;;;;5.47;4.40;;;17.40;99.90;;;;;;4969231;28;20093;-75
2023/08/27 03:25:42;;;;;;;6.22;4.30;;;17.40;99.90;;;;;;4969092;28;20057;-74
2023/08/27 03:28:07;;;;;;;6.82;3.72;;;17.40;99.90;;;;;;4964194;28;20046;-75
2023/08/27 03:30:33;;;;;;;7.85;4.43;;;17.30;99.90;;;;;;4967424;28;20093;-75
2023/08/27 03:33:01;;;;;;;8.25;4.38;;;17.30;99.90;;;;;;4968611;28;20097;-74
2023/08/27 03:35:27;;;;;;;6.32;3.53;;;17.30;99.90;;;;;;4968122;28;20500;-74
2023/08/27 03:37:52;;;;;;;10.25;3.90;;;17.30;99.90;;;;;;4970816;28;20023;-74
2023/08/27 03:40:20;;;;;;;7.38;4.13;;;17.30;99.90;;;;;;4954550;28;20045;-74
2023/08/27 03:42:45;;;;;;;6.35;3.35;;;17.20;99.90;;;;;;4972799;28;20027;-74
2023/08/27 03:45:17;;;;;;;5.93;3.85;;;17.20;99.90;;;;;;4967729;28;20041;-74
2023/08/27 03:47:42;;;;;;;6.60;3.50;;;17.20;99.90;;;;;;4966126;28;20030;-74
2023/08/27 03:50:08;;;;;;;10.13;4.18;;;17.30;99.90;;;;;;4955397;28;20022;-74
2023/08/27 03:52:34;;;;;;;5.05;3.40;;;17.30;99.90;;;;;;4968531;28;20031;-74
2023/08/27 03:55:03;;;;;;;4.28;3.30;;;17.20;99.90;;;;;;4972115;28;20073;-74
2023/08/27 03:57:28;;;;;;;7.30;3.90;;;17.30;99.90;;;;;;4970000;28;20114;-74
2023/08/27 03:59:54;;;;;;;9.70;3.60;;;17.30;99.90;;;;;;4971682;28;20102;-74
2023/08/27 04:02:19;;;;;;;5.30;2.97;;;17.30;99.90;;;;;;4969454;28;20035;-73
2023/08/27 04:04:57;;;;;;;3.70;2.67;;;17.30;99.90;;;;;;4970868;28;20106;-73
2023/08/27 04:07:22;;;;;;;5.20;3.03;;;17.30;99.90;;;;;;4969279;28;20063;-74
2023/08/27 04:09:48;;;;;;;3.50;2.70;;;17.30;99.90;;;;;;4952487;28;20449;-75
2023/08/27 04:12:14;;;;;;;6.13;2.72;;;17.30;99.90;;;;;;4965129;28;20023;-75
2023/08/27 04:14:39;;;;;;;3.33;2.38;;;17.30;99.90;;;;;;4971747;28;20240;-74
2023/08/27 04:17:05;;;;;;;6.63;2.53;;;17.30;99.90;;;;;;4969472;28;20034;-74
2023/08/27 04:19:30;;;;;;;2.88;2.17;;;17.30;99.90;;;;;;4969591;28;20060;-74
2023/08/27 04:21:56;;;;;;;4.00;1.95;;;17.30;99.90;;;;;;4967990;28;20038;-75
2023/08/27 04:24:25;;;;;;;4.03;2.15;;;17.30;99.90;;;;;;4954130;28;20042;-76
2023/08/27 04:26:58;;;;;;;2.17;1.55;;;17.20;99.90;;;;;;4971635;28;20085;-75
2023/08/27 04:29:24;;;;;;;3.33;2.53;;;17.30;99.90;;;;;;4954565;28;20027;-75
2023/08/27 04:31:49;;;;;;;2.60;1.90;;;17.30;99.90;;;;;;4969572;28;20488;-74
2023/08/27 04:34:15;;;;;;;4.15;1.80;;;17.30;99.90;;;;;;4972342;28;20030;-73
2023/08/27 04:36:41;;;;;;;4.32;2.13;;;17.20;99.90;;;;;;4967176;28;20023;-74
2023/08/27 04:39:07;;;;;;;2.97;1.50;;;17.30;99.90;;;;;;4974910;28;20035;-74
2023/08/27 04:41:33;;;;;;;3.95;2.20;;;17.30;99.90;;;;;;4970203;28;20029;-74
2023/08/27 04:43:59;;;;;;;2.33;1.63;;;17.20;99.90;;;;;;4969931;28;20408;-74
2023/08/27 04:46:24;;;;;;;3.70;1.48;;;17.30;99.90;;;;;;4970758;28;20101;-74
2023/08/27 04:48:50;;;;;;;3.13;1.33;;;17.30;99.90;;;;;;4970676;28;20023;-74
2023/08/27 04:51:16;;;;;;;1.75;1.30;;;17.30;99.90;;;;;;4970600;28;20068;-74
2023/08/27 04:53:42;;;;;;;2.03;1.10;;;17.30;99.90;;;;;;4956623;28;20030;-74
2023/08/27 04:56:07;;;;;;;1.50;1.00;;;17.30;99.90;;;;;;4970715;28;20042;-73
2023/08/27 04:58:33;;;;;;;2.55;1.13;;;17.20;99.90;;;;;;4967828;28;20022;-74
2023/08/27 05:00:59;;;;;;;1.60;1.20;;;17.20;99.90;;;;;;4970744;28;20055;-74
2023/08/27 05:03:25;;;;;;;2.33;1.27;;;17.20;99.90;;;;;;4969756;28;20062;-74
2023/08/27 05:05:54;;;;;;;3.83;1.10;;;17.20;99.90;;;;;;4968297;28;20106;-74
2023/08/27 05:08:20;;;;;;;2.72;1.20;;;17.20;99.90;;;;;;4970308;28;20050;-74
2023/08/27 05:10:51;;;;;;;2.08;1.10;;;17.20;99.90;;;;;;4968562;28;20437;-74
2023/08/27 05:13:17;;;;;;;2.03;1.40;;;17.30;99.90;;;;;;4968902;28;20054;-73
2023/08/27 05:15:42;;;;;;;2.60;1.38;;;17.30;99.90;;;;;;4968414;28;20078;-73
2023/08/27 05:18:09;;;;;;;2.55;1.20;;;17.40;99.90;;;;;;4968767;28;20897;-74
2023/08/27 05:20:40;;;;;;;2.38;1.40;;;17.40;99.90;;;;;;4968537;28;20062;-74
2023/08/27 05:23:06;;;;;;;2.95;1.48;;;17.40;99.90;;;;;;4969846;28;20567;-74
2023/08/27 05:25:32;;;;;;;2.25;1.50;;;17.40;99.90;;;;;;4950786;28;20197;-73
2023/08/27 05:27:58;;;;;;;2.60;1.33;;;17.40;99.90;;;;;;4967230;28;20525;-73
2023/08/27 05:30:27;;;;;;;2.47;1.40;;;17.40;99.90;;;;;;4964185;28;20035;-74
2023/08/27 05:32:53;;;;;;;4.28;1.58;;;17.50;99.90;;;;;;4964431;28;20027;-73
2023/08/27 05:35:25;;;;;;;2.95;2.15;;;17.40;99.90;;;;;;4966875;28;20026;-73
2023/08/27 05:37:53;;;;;;;4.28;2.40;;;17.40;99.90;;;;;;4964133;28;20054;-73
2023/08/27 05:40:19;;;;;;;5.10;2.53;;;17.40;99.90;;;;;;4968301;28;20085;-73
2023/08/27 05:42:45;;;;;;;3.80;2.63;;;17.40;99.90;;;;;;4968373;28;20027;-74
2023/08/27 05:45:11;;;;;;;3.70;2.72;;;17.40;99.90;;;;;;4950016;28;20073;-73
2023/08/27 05:47:36;;;;;;;6.47;3.05;;;17.30;99.90;;;;;;4965614;28;20033;-73
2023/08/27 05:50:02;;;;;;;3.67;2.55;;;17.40;99.90;;;;;;4967772;28;20054;-73
2023/08/27 05:52:27;;;;;;;6.68;2.92;;;17.40;99.90;;;;;;4968656;28;20081;-73
2023/08/27 05:54:53;;;;;;;9.73;3.47;;;17.40;99.90;;;;;;4967212;23;20047;-82
2023/08/27 05:57:19;;;;;;;7.18;3.08;;;17.40;99.90;;;;;;4955362;28;20106;-82
2023/08/27 05:59:44;;;;;;;7.20;2.42;;;17.40;99.90;;;;;;4955151;28;20503;-83
2023/08/27 06:02:10;;;;;;;4.25;2.13;;;17.40;99.90;;;;;;4949823;28;20032;-81
2023/08/27 06:04:35;;;;;;;5.25;2.55;;;17.40;99.90;;;;;;4955820;28;20042;-82
2023/08/27 06:07:01;;;;;;;4.53;2.92;;;17.50;99.90;;;;;;4955227;28;20027;-84
2023/08/27 06:09:27;;;;;;;4.07;2.20;;;17.50;99.90;;;;;;4939867;28;20038;-84
2023/08/27 06:11:52;;;;;;;5.20;2.78;;;17.40;99.90;;;;;;4957419;28;20146;-83
2023/08/27 06:14:18;;;;;;;5.38;2.10;;;17.60;99.90;;;;;;4958018;28;20028;-80
2023/08/27 06:16:47;;;;;;;2.72;1.60;;;17.60;99.90;;;;;;4947923;28;20030;-83
2023/08/27 06:19:12;;;;;;;2.30;1.75;;;17.60;99.90;;;;;;4956094;28;20027;-84
2023/08/27 06:21:38;;;;;;;2.70;1.75;;;17.60;99.90;;;;;;4958496;28;20468;-84
2023/08/27 06:24:04;;;;;;;4.25;1.98;;;17.60;99.90;;;;;;4955634;28;20094;-86
2023/08/27 06:26:29;;;;;;;3.88;2.00;;;17.70;99.90;;;;;;4961491;28;20039;-84
2023/08/27 06:28:55;;;;;;;2.08;1.30;;;17.70;99.90;;;;;;4954977;28;20027;-84
2023/08/27 06:31:20;;;;;;;2.15;1.45;;;17.70;99.90;;;;;;4940836;28;20059;-84
2023/08/27 06:33:46;;;;;;;3.47;1.60;;;17.80;99.90;;;;;;4958029;28;20032;-86
2023/08/27 06:36:11;;;;;;;3.10;1.60;;;17.80;99.90;;;;;;4957135;28;20396;-84
2023/08/27 06:38:37;;;;;;;4.25;1.90;;;17.90;99.90;;;;;;4956913;28;20117;-84
2023/08/27 06:41:03;;;;;;;2.25;1.75;;;17.90;99.90;;;;;;4938254;29;20031;-85
2023/08/27 06:43:29;;;;;;;3.25;1.40;;;18.00;99.90;;;;;;4942078;28;20027;-84
2023/08/27 06:45:54;;;;;;;3.15;1.80;;;18.00;99.90;;;;;;4962332;28;20023;-86
2023/08/27 06:48:20;;;;;;;4.50;1.77;;;18.10;99.90;;;;;;4954777;28;20042;-84
2023/08/27 06:50:45;;;;;;;14.25;2.15;;;18.20;99.90;;;;;;4956638;28;20027;-87
2023/08/27 06:53:11;;;;;;;2.22;1.73;;;18.20;99.90;;;;;;4951601;28;20389;-83
2023/08/27 06:55:37;;;;;;;2.30;1.45;;;18.20;99.90;;;;;;4960182;28;20384;-86
2023/08/27 06:58:03;;;;;;;2.85;1.30;;;18.20;99.90;;;;;;4946049;28;20035;-86
2023/08/27 07:00:28;;;;;;;4.97;1.50;;;18.20;99.90;;;;;;4953514;28;20150;-86
2023/08/27 07:02:54;;;;;;;2.97;1.65;;;18.20;99.90;;;;;;4953332;28;20027;-85
2023/08/27 07:05:20;;;;;;;3.78;1.15;;;18.20;99.90;;;;;;4958425;28;20074;-86
2023/08/27 07:07:46;;;;;;;3.13;1.13;;;18.20;99.90;;;;;;4956985;28;20564;-85
2023/08/27 07:10:14;;;;;;;4.47;1.20;;;18.20;99.90;;;;;;4951715;28;20094;-85
2023/08/27 07:12:40;;;;;;;1.75;1.30;;;18.10;99.90;;;;;;4959113;28;20023;-87
2023/08/27 07:15:07;;;;;;;1.80;1.10;;;18.10;99.90;;;;;;4958602;28;20027;-86
2023/08/27 07:17:33;;;;;;;1.88;1.05;;;18.20;99.90;;;;;;4959773;28;20495;-85
2023/08/27 07:19:59;;;;;;;3.50;1.38;;;18.10;99.90;;;;;;4962812;28;20031;-85
2023/08/27 07:22:25;;;;;;;1.85;1.30;;;18.20;99.90;;;;;;4946253;28;20134;-84
2023/08/27 07:24:51;;;;;;;2.70;1.30;;;18.20;99.90;;;;;;4959358;28;20055;-85
2023/08/27 07:27:16;;;;;;;2.78;1.13;;;18.20;99.90;;;;;;4961679;28;20094;-86
2023/08/27 07:29:42;;;;;;;2.65;1.30;;;18.10;99.90;;;;;;4962726;28;20041;-86
2023/08/27 07:32:08;;;;;;;7.47;1.65;;;18.20;99.90;;;;;;4960149;28;20047;-87
2023/08/27 07:34:33;;;;;;;1.90;1.05;;;18.20;99.90;;;;;;4948401;28;20023;-87
2023/08/27 07:36:59;;;;;;;3.40;1.20;;;18.20;99.90;;;;;;4966166;28;20034;-86
2023/08/27 07:39:25;;;;;;;1.88;1.20;;;18.10;99.90;;;;;;4964834;28;20034;-85
2023/08/27 07:41:51;;;;;;;2.30;1.40;;;18.20;99.90;;;;;;4961022;28;20027;-86
2023/08/27 07:44:17;;;;;;;2.40;1.30;;;18.20;99.90;;;;;;4957631;28;20038;-84
2023/08/27 07:46:43;;;;;;;2.08;1.30;;;18.20;99.90;;;;;;4964359;28;20031;-83
2023/08/27 07:49:09;;;;;;;2.15;1.13;;;18.20;99.90;;;;;;4969531;28;20140;-82
2023/08/27 07:51:35;;;;;;;1.77;1.23;;;18.20;99.90;;;;;;4963626;28;20023;-84
2023/08/27 07:54:01;;;;;;;2.78;1.52;;;18.30;99.90;;;;;;4960431;28;20484;-86
2023/08/27 07:56:27;;;;;;;2.95;1.60;;;18.30;99.90;;;;;;4966493;28;20034;-87
2023/08/27 07:58:52;;;;;;;2.50;1.40;;;18.30;99.90;;;;;;4964254;28;20034;-84
2023/08/27 08:01:18;;;;;;;1.90;1.23;;;18.40;99.90;;;;;;4964816;28;20261;-84
2023/08/27 08:03:44;;;;;;;3.15;1.10;;;18.40;99.90;;;;;;4963952;28;20035;-85
2023/08/27 08:06:09;;;;;;;3.28;1.17;;;18.50;99.90;;;;;;4965980;28;20067;-85
2023/08/27 08:08:35;;;;;;;2.67;1.55;;;18.60;99.90;;;;;;4960126;28;20031;-86
2023/08/27 08:11:01;;;;;;;4.80;1.55;;;18.70;99.90;;;;;;4944330;28;20031;-86
2023/08/27 08:13:27;;;;;;;2.15;1.27;;;18.70;99.90;;;;;;4965021;28;20034;-84
2023/08/27 08:15:52;;;;;;;2.10;1.48;;;18.70;99.90;;;;;;4962240;28;20071;-84
2023/08/27 08:18:18;;;;;;;2.85;1.50;;;18.80;99.90;;;;;;4997930;23;20558;-78
2023/08/27 08:20:45;;;;;;;5.30;1.42;;;18.80;99.90;;;;;;4916182;29;20120;-79
2023/08/27 08:23:13;;;;;;;3.08;1.58;;;18.80;99.90;;;;;;4931280;29;20024;-77
2023/08/27 08:25:42;;;;;;;4.53;1.75;;;18.90;99.90;;;;;;4934236;29;20024;-77
2023/08/27 08:28:14;;;;;;;1.98;1.60;;;18.80;99.90;;;;;;4929365;29;20509;-77
2023/08/27 08:30:48;;;;;;;3.78;1.40;;;18.90;99.90;;;;;;4929997;29;20443;-78
2023/08/27 08:33:15;;;;;;;2.97;1.95;;;18.80;99.90;;;;;;4963521;23;20087;-76
2023/08/27 08:35:44;;;;;;;2.88;1.27;;;18.80;99.90;;;;;;4963871;28;20433;-76
2023/08/27 08:38:19;;;;;;;3.20;1.80;;;18.80;99.90;;;;;;4958842;28;20027;-76
2023/08/27 08:41:11;;;;;;;4.13;1.50;;;18.80;99.90;;;;;;4957603;28;20055;-76
2023/08/27 08:43:51;;;;;;;6.60;1.75;;;18.80;99.90;;;;;;4961899;28;20375;-73
2023/08/27 08:46:23;;;;;;;2.72;1.60;;;18.60;99.90;;;;;;4937968;28;20385;-75
2023/08/27 08:48:56;;;;;;;5.10;1.80;;;18.60;99.90;;;;;;4953239;28;20470;-74
2023/08/27 08:51:28;;;;;;;2.80;1.93;;;18.60;99.90;;;;;;4947653;28;20023;-74
2023/08/27 08:54:00;;;;;;;3.70;1.77;;;18.60;99.90;;;;;;4949955;28;20058;-73
2023/08/27 08:56:37;;;;;;;4.22;1.92;;;18.60;99.90;;;;;;4951775;28;20438;-74
2023/08/27 08:59:04;;;;;;;3.63;2.03;;;18.70;99.90;;;;;;4953725;28;20062;-74
2023/08/27 09:01:30;;;;;;;3.83;1.80;;;18.70;99.90;;;;;;4950314;28;20039;-74
2023/08/27 09:03:57;;;;;;;2.05;1.58;;;18.80;99.90;;;;;;4927295;29;20035;-74
2023/08/27 09:06:23;;;;;;;2.20;1.40;;;18.80;99.90;;;;;;4953481;28;20509;-73
2023/08/27 09:08:50;;;;;;;4.32;1.92;;;18.90;99.90;;;;;;4948932;28;20030;-72
2023/08/27 09:11:24;;;;;;;3.55;1.27;;;18.90;99.90;;;;;;4939931;28;20407;-74
2023/08/27 09:13:54;;;;;;;4.22;1.85;;;18.90;99.90;;;;;;4949723;28;20367;-73
2023/08/27 09:16:29;;;;;;;3.00;1.60;;;18.90;99.90;;;;;;4924387;28;20032;-73
2023/08/27 09:19:02;;;;;;;4.55;1.80;;;19.00;99.90;;;;;;4951746;28;20046;-72
2023/08/27 09:21:30;;;;;;;2.15;1.50;;;19.00;99.90;;;;;;4951368;28;20054;-74
2023/08/27 09:24:05;;;;;;;1.83;1.25;;;19.10;99.90;;;;;;4949124;28;20023;-75
2023/08/27 09:26:31;;;;;;;3.30;1.63;;;19.20;99.90;;;;;;4945906;28;20039;-72
2023/08/27 09:28:58;;;;;;;2.55;1.35;;;19.20;99.90;;;;;;4954378;28;20046;-76
2023/08/27 09:31:41;;;;;;;4.47;1.67;;;19.20;99.90;;;;;;4947158;28;20599;-76
2023/08/27 09:34:08;;;;;;;3.83;1.90;;;19.30;99.90;;;;;;4947978;28;20121;-77
2023/08/27 09:36:36;;;;;;;3.80;1.52;;;19.30;99.90;;;;;;4953698;28;20015;-77
2023/08/27 09:39:25;;;;;;;3.30;1.58;;;19.30;99.90;;;;;;4945474;28;20031;-76
2023/08/27 09:41:59;;;;;;;3.58;1.40;;;19.40;99.90;;;;;;4945140;28;20490;-77
2023/08/27 09:44:25;;;;;;;3.92;1.60;;;19.40;99.90;;;;;;4953392;28;20038;-75
2023/08/27 09:47:03;;;;;;;2.78;1.55;;;19.40;99.90;;;;;;4956487;29;20075;-75
2023/08/27 09:49:29;;;;;;;2.45;1.40;;;19.50;99.90;;;;;;4954463;29;20035;-75
2023/08/27 09:52:01;;;;;;;10.52;1.77;;;19.60;99.90;;;;;;4956958;28;20323;-75
2023/08/27 09:54:30;;;;;;;5.30;1.80;;;19.60;99.90;;;;;;4955186;29;20117;-76
2023/08/27 09:56:59;;;;;;;1.70;1.10;;;19.60;99.90;;;;;;4955319;29;20431;-76
2023/08/27 09:59:25;;;;;;;2.28;1.38;;;19.70;99.90;;;;;;4955653;29;20046;-76
2023/08/27 10:01:52;;;;;;;2.97;1.33;;;19.70;99.90;;;;;;4955163;28;20104;-76
2023/08/27 10:04:19;;;;;;;2.58;1.42;;;19.70;99.90;;;;;;4955977;29;20031;-75
2023/08/27 10:06:45;;;;;;;2.83;1.63;;;19.70;99.90;;;;;;4953750;29;20546;-76
2023/08/27 10:09:17;;;;;;;3.60;1.42;;;19.60;99.90;;;;;;4955816;29;20481;-76
2023/08/27 10:11:45;;;;;;;3.63;1.70;;;19.60;99.90;;;;;;4955623;29;20094;-76
2023/08/27 10:14:17;;;;;;;3.78;1.40;;;19.50;99.90;;;;;;4938001;29;20087;-75
2023/08/27 10:16:43;;;;;;;2.45;1.00;;;19.50;99.90;;;;;;4955007;29;20015;-76
2023/08/27 10:19:10;;;;;;;2.92;1.52;;;19.50;99.90;;;;;;4938440;29;20030;-76
2023/08/27 10:21:36;;;;;;;5.32;1.60;;;19.50;99.90;;;;;;4938863;29;20518;-77
2023/08/27 10:24:02;;;;;;;3.15;1.33;;;19.60;99.90;;;;;;4956147;29;20031;-78
2023/08/27 10:26:30;;;;;;;1.75;1.25;;;19.50;99.90;;;;;;4957362;28;20027;-79
2023/08/27 10:29:04;;;;;;;2.75;1.70;;;19.60;99.90;;;;;;4943815;28;20069;-77
2023/08/27 10:31:32;;;;;;;3.05;1.23;;;19.60;99.90;;;;;;4950188;28;20066;-78
2023/08/27 10:33:58;;;;;;;2.05;1.48;;;19.70;99.90;;;;;;4934642;28;20131;-78
2023/08/27 10:36:30;;;;;;;3.15;1.30;;;19.70;99.90;;;;;;4956906;28;20549;-77
2023/08/27 10:38:59;;;;;;;3.78;1.40;;;19.70;99.90;;;;;;4956570;29;20134;-78
2023/08/27 10:41:25;;;;;;;2.35;1.75;;;19.80;99.90;;;;;;4953051;28;20035;-74
2023/08/27 10:43:51;;;;;;;3.17;1.80;;;19.80;99.90;;;;;;4969541;28;20171;-76
2023/08/27 10:46:20;;;;;;;3.35;2.05;;;19.80;99.90;;;;;;4956005;28;20509;-76
2023/08/27 10:48:53;;;;;;;1.95;1.00;;;19.90;99.90;;;;;;4955750;28;20046;-78
2023/08/27 10:51:23;;;;;;;4.75;1.48;;;19.90;99.90;;;;;;4955333;28;20027;-76
2023/08/27 10:53:49;;;;;;;5.82;1.23;;;19.90;99.90;;;;;;4960623;28;20035;-76
2023/08/27 10:56:37;;;;;;;2.15;1.00;;;19.90;99.90;;;;;;4955246;28;20029;-77
2023/08/27 10:59:10;;;;;;;1.48;1.10;;;19.90;99.90;;;;;;4959337;28;20042;-76
2023/08/27 11:01:56;;;;;;;4.43;1.30;;;20.00;99.90;;;;;;4956494;28;20051;-77
2023/08/27 11:04:36;;;;;;;2.35;1.42;;;20.00;99.90;;;;;;4951518;28;20045;-76
2023/08/27 11:07:15;;;;;;;2.67;1.50;;;20.00;99.90;;;;;;4953430;28;20019;-76
2023/08/27 11:09:53;;;;;;;4.25;1.15;;;20.10;99.90;;;;;;4957118;28;20099;-77
2023/08/27 11:12:24;;;;;;;1.55;1.33;;;20.10;99.90;;;;;;4953095;28;20034;-78
2023/08/27 11:14:51;;;;;;;2.10;1.20;;;20.20;99.90;;;;;;4971784;28;20023;-78
2023/08/27 11:17:26;;;;;;;2.15;1.55;;;20.20;99.90;;;;;;4939445;28;20027;-79
2023/08/27 11:19:57;;;;;;;2.28;1.13;;;20.30;99.90;;;;;;4954710;28;20546;-77
2023/08/27 11:22:23;;;;;;;3.35;1.35;;;20.30;99.90;;;;;;4953234;28;20993;-78
2023/08/27 11:24:52;;;;;;;2.20;0.93;;;20.30;99.90;;;;;;4952365;28;20023;-76
2023/08/27 11:27:22;;;;;;;4.57;1.48;;;20.30;99.90;;;;;;4960223;28;20026;-77
2023/08/27 11:29:53;;;;;;;3.35;1.23;;;20.40;99.90;;;;;;4951336;28;20046;-74
2023/08/27 11:32:20;;;;;;;2.05;0.98;;;20.40;99.90;;;;;;4948958;28;20031;-76
2023/08/27 11:34:51;;;;;;;2.78;1.30;;;20.50;99.90;;;;;;4939720;29;20027;-73
2023/08/27 11:37:21;;;;;;;1.75;1.15;;;20.50;99.90;;;;;;4947941;28;20462;-75
2023/08/27 11:39:50;;;;;;;2.13;1.05;;;20.60;99.90;;;;;;4956717;29;20015;-78
2023/08/27 11:42:19;;;;;;;3.50;1.45;;;20.60;99.90;;;;;;4964466;28;20501;-78
2023/08/27 11:45:08;;;;;;;3.63;1.10;;;20.70;99.90;;;;;;4953353;28;20039;-76
2023/08/27 11:47:40;;;;;;;2.53;1.38;;;20.70;99.90;;;;;;4949343;29;20047;-77
2023/08/27 11:50:09;;;;;;;3.67;1.30;;;20.80;99.90;;;;;;4956070;29;20389;-76
2023/08/27 11:52:41;;;;;;;3.72;1.50;;;20.80;99.90;;;;;;4955926;28;20034;-76
2023/08/27 11:55:10;;;;;;;2.33;1.33;;;20.80;99.90;;;;;;4956712;29;20489;-76
2023/08/27 11:57:40;;;;;;;1.83;1.33;;;20.80;99.90;;;;;;4954098;28;20474;-75
2023/08/27 12:00:20;;;;;;;3.60;1.00;;;20.80;99.90;;;;;;4956768;28;20085;-75
2023/08/27 12:02:51;;;;;;;3.05;1.40;;;20.80;99.90;;;;;;4942373;28;20042;-72
2023/08/27 12:05:17;;;;;;;3.35;1.27;;;20.90;99.90;;;;;;4961648;28;20046;-78
2023/08/27 12:07:43;;;;;;;2.08;1.00;;;20.90;99.90;;;;;;4971589;28;20024;-78
2023/08/27 12:10:27;;;;;;;4.90;1.13;;;21.00;99.90;;;;;;4963066;28;20159;-77
2023/08/27 12:12:53;;;;;;;2.03;1.30;;;21.00;99.90;;;;;;4962943;28;20483;-78
2023/08/27 12:15:19;;;;;;;3.55;1.25;;;21.00;99.90;;;;;;4947431;28;20042;-75
2023/08/27 12:17:50;;;;;;;1.98;1.30;;;21.00;99.90;;;;;;4939660;29;20043;-79
2023/08/27 12:20:30;;;;;;;3.15;1.35;;;21.00;99.90;;;;;;4940420;28;20035;-78
2023/08/27 12:22:58;;;;;;;2.85;1.20;;;21.00;99.90;;;;;;4952723;28;20027;-77
2023/08/27 12:25:27;;;;;;;3.13;1.48;;;21.00;99.90;;;;;;4957189;28;20035;-75
2023/08/27 12:27:53;;;;;;;3.00;1.40;;;21.00;99.90;;;;;;4957090;28;20031;-76
2023/08/27 12:30:19;;;;;;;3.28;1.50;;;21.00;99.90;;;;;;4956563;28;20090;-76
2023/08/27 12:32:54;;;;;;;2.58;1.35;;;21.00;99.90;;;;;;4969424;28;20433;-77
2023/08/27 12:35:29;;;;;;;1.67;1.17;;;21.00;99.90;;;;;;4964584;28;20098;-76
2023/08/27 12:37:55;;;;;;;2.95;1.75;;;20.90;99.90;;;;;;4946044;28;20408;-77
2023/08/27 12:40:21;;;;;;;2.22;1.52;;;20.90;99.90;;;;;;4961580;28;20066;-76
2023/08/27 12:42:52;;;;;;;3.97;1.40;;;20.90;99.90;;;;;;4954332;28;20031;-76
2023/08/27 12:45:17;;;;;;;3.95;1.95;;;20.90;99.90;;;;;;4935051;29;20031;-78
2023/08/27 12:47:43;;;;;;;4.43;1.40;;;20.90;99.90;;;;;;4940544;29;20050;-73
2023/08/27 12:50:13;;;;;;;2.65;1.27;;;20.90;99.90;;;;;;4956708;28;20513;-76